Time;durP1;ratioP1;P1;durP2;ratioP2;P2;SDS_P1;SDS_P2;PMS_P1;PMS_P2;Temp;Humidity;BMP_temperature;BMP_pressure;BME280_temperature;BME280_humidity;BME280_pressure;Samples;Min_cycle;Max_cycle;Signal;HPM_P1;HPM_P2
2021/07/22 00:04:06;;;;;;;7.57;6.90;;;21.40;30.50;;;;;;10451212;28;20239;-75
2021/07/22 00:09:09;;;;;;;8.77;7.37;;;21.40;31.30;;;;;;10451149;28;20598;-75
2021/07/22 00:14:12;;;;;;;9.80;7.70;;;21.40;30.90;;;;;;10450988;28;20233;-75
2021/07/22 00:19:17;;;;;;;8.00;7.20;;;21.30;30.90;;;;;;10450770;28;20740;-75
2021/07/22 00:24:20;;;;;;;8.43;7.60;;;21.20;31.30;;;;;;10450604;28;20240;-74
2021/07/22 00:29:24;;;;;;;7.13;6.53;;;21.20;31.10;;;;;;10450506;28;20228;-76
2021/07/22 00:34:29;;;;;;;7.97;7.27;;;21.10;31.10;;;;;;10450148;28;20236;-75
2021/07/22 00:39:33;;;;;;;7.50;6.70;;;21.10;31.70;;;;;;10450209;28;20592;-76
2021/07/22 00:44:36;;;;;;;7.27;6.50;;;21.00;31.10;;;;;;10449736;28;20236;-76
2021/07/22 00:49:41;;;;;;;6.83;6.20;;;21.00;31.20;;;;;;10449624;28;20236;-75
2021/07/22 00:54:44;;;;;;;7.13;6.43;;;21.00;31.60;;;;;;10449517;28;20641;-75
2021/07/22 00:59:47;;;;;;;7.63;6.90;;;21.00;31.20;;;;;;10448904;28;20225;-74
2021/07/22 01:04:51;;;;;;;7.77;6.77;;;20.90;31.20;;;;;;10449267;28;20248;-75
2021/07/22 01:09:54;;;;;;;7.60;6.90;;;20.90;31.70;;;;;;10449002;28;20229;-75
2021/07/22 01:14:57;;;;;;;7.33;6.63;;;20.90;31.50;;;;;;10448853;28;20611;-73
2021/07/22 01:20:02;;;;;;;6.97;6.27;;;20.90;31.50;;;;;;10448878;28;20233;-75
2021/07/22 01:25:08;;;;;;;7.30;5.90;;;20.80;31.90;;;;;;10448604;28;20424;-75
2021/07/22 01:30:13;;;;;;;7.00;6.40;;;20.80;32.10;;;;;;10448580;28;20233;-76
2021/07/22 01:35:16;;;;;;;7.30;6.53;;;20.70;31.50;;;;;;10449253;28;20221;-76
2021/07/22 01:40:20;;;;;;;8.13;7.33;;;20.70;31.70;;;;;;10448637;28;20229;-76
2021/07/22 01:45:24;;;;;;;6.97;6.30;;;20.60;32.10;;;;;;10448389;28;20236;-75
2021/07/22 01:50:27;;;;;;;6.10;5.57;;;20.60;31.60;;;;;;10448213;28;20225;-75
2021/07/22 01:55:31;;;;;;;6.97;6.37;;;20.50;31.60;;;;;;10448325;28;20254;-76
2021/07/22 02:00:34;;;;;;;6.20;5.40;;;20.40;32.10;;;;;;10448196;28;20733;-76
2021/07/22 02:05:37;;;;;;;6.93;6.33;;;20.30;31.60;;;;;;10447891;28;20229;-76
2021/07/22 02:10:42;;;;;;;5.87;5.37;;;20.30;31.80;;;;;;10453332;28;20613;-75
2021/07/22 02:15:45;;;;;;;6.40;5.63;;;20.20;32.20;;;;;;10455496;28;20235;-75
2021/07/22 02:20:48;;;;;;;7.13;6.07;;;20.10;31.90;;;;;;10455560;28;20244;-75
2021/07/22 02:25:53;;;;;;;6.57;5.97;;;20.10;31.90;;;;;;10455001;28;20274;-75
2021/07/22 02:30:56;;;;;;;7.97;6.93;;;20.10;32.30;;;;;;10455097;28;20330;-76
2021/07/22 02:36:00;;;;;;;6.27;5.67;;;20.00;32.30;;;;;;10454946;28;20225;-75
2021/07/22 02:41:06;;;;;;;6.43;5.80;;;19.90;32.20;;;;;;10454641;28;20225;-76
2021/07/22 02:46:09;;;;;;;6.77;6.17;;;19.80;32.60;;;;;;10454632;28;20578;-76
2021/07/22 02:51:12;;;;;;;6.17;5.57;;;19.80;32.30;;;;;;10454306;28;20229;-76
2021/07/22 02:56:17;;;;;;;6.53;5.93;;;19.70;32.10;;;;;;10454180;28;20728;-76
2021/07/22 03:01:20;;;;;;;6.83;6.23;;;19.70;32.50;;;;;;10454041;28;20237;-75
2021/07/22 03:06:24;;;;;;;6.67;5.73;;;19.60;32.30;;;;;;10453674;28;20240;-76
2021/07/22 03:11:28;;;;;;;6.57;5.97;;;19.60;32.40;;;;;;10453513;28;20229;-75
2021/07/22 03:16:31;;;;;;;6.73;6.13;;;19.50;32.90;;;;;;10453371;28;20685;-75
2021/07/22 03:21:34;;;;;;;6.97;6.27;;;19.50;32.60;;;;;;10452842;28;20229;-76
2021/07/22 03:26:39;;;;;;;6.93;6.27;;;19.40;32.60;;;;;;10453047;28;20613;-76
2021/07/22 03:31:42;;;;;;;5.83;5.20;;;19.30;32.90;;;;;;10452691;28;20251;-75
2021/07/22 03:36:45;;;;;;;6.03;5.43;;;19.30;32.60;;;;;;10452602;28;20614;-76
2021/07/22 03:41:50;;;;;;;5.93;5.40;;;19.20;32.70;;;;;;10452859;28;20236;-76
2021/07/22 03:46:53;;;;;;;5.73;5.10;;;19.20;33.30;;;;;;10451983;28;20224;-76
2021/07/22 03:51:56;;;;;;;8.47;6.33;;;19.10;32.90;;;;;;10452074;28;20263;-76
2021/07/22 03:57:02;;;;;;;6.40;5.80;;;19.10;33.00;;;;;;10451691;28;20719;-76
2021/07/22 04:02:05;;;;;;;8.97;5.80;;;19.10;33.50;;;;;;10451173;28;20240;-76
2021/07/22 04:07:09;;;;;;;6.63;6.07;;;19.00;33.10;;;;;;10451213;28;20243;-76
2021/07/22 04:12:17;;;;;;;5.83;5.33;;;19.00;33.00;;;;;;10451281;28;20247;-76
2021/07/22 04:17:20;;;;;;;6.00;5.40;;;19.00;33.90;;;;;;10450823;28;20705;-76
2021/07/22 04:22:24;;;;;;;5.60;5.10;;;18.90;33.30;;;;;;10450413;28;20240;-75
2021/07/22 04:27:28;;;;;;;5.70;5.20;;;18.90;33.40;;;;;;10450301;28;20229;-76
2021/07/22 04:32:31;;;;;;;6.10;5.60;;;18.90;33.90;;;;;;10449934;28;20240;-76
2021/07/22 04:37:35;;;;;;;6.57;5.57;;;18.90;33.70;;;;;;10449826;28;20227;-76
2021/07/22 04:42:39;;;;;;;7.10;6.00;;;18.90;34.00;;;;;;10449405;28;20229;-76
2021/07/22 04:47:42;;;;;;;6.17;5.67;;;18.90;34.20;;;;;;10447443;28;20665;-75
2021/07/22 04:52:46;;;;;;;6.90;6.20;;;18.90;34.20;;;;;;10447778;28;20717;-76
2021/07/22 04:57:58;;;;;;;10.00;6.53;;;19.00;34.60;;;;;;10448369;28;20236;-76
2021/07/22 05:03:02;;;;;;;6.33;5.83;;;19.00;35.60;;;;;;10449022;28;20235;-76
2021/07/22 05:08:05;;;;;;;6.97;6.37;;;19.00;34.70;;;;;;10449214;28;20279;-75
2021/07/22 05:13:11;;;;;;;10.47;7.00;;;19.00;35.60;;;;;;10448966;28;20229;-76
2021/07/22 05:18:16;;;;;;;9.13;7.57;;;19.00;35.60;;;;;;10449183;28;20239;-76
2021/07/22 05:23:19;;;;;;;9.13;8.23;;;19.10;35.90;;;;;;10448547;28;20312;-75
2021/07/22 05:28:23;;;;;;;9.03;8.13;;;19.10;35.70;;;;;;10448985;28;20231;-76
2021/07/22 05:33:27;;;;;;;8.47;7.60;;;19.20;35.80;;;;;;10448493;28;20228;-76
2021/07/22 05:38:31;;;;;;;9.50;8.50;;;19.30;35.90;;;;;;10448539;28;20229;-75
2021/07/22 05:43:35;;;;;;;9.40;8.50;;;19.40;36.00;;;;;;10450339;28;20229;-75
2021/07/22 05:48:38;;;;;;;9.17;8.30;;;19.40;36.40;;;;;;10450549;28;20624;-74
2021/07/22 05:53:42;;;;;;;8.80;7.80;;;19.60;36.20;;;;;;10456162;28;20239;-75
2021/07/22 05:58:46;;;;;;;9.10;8.30;;;19.70;36.20;;;;;;10455790;28;20235;-74
2021/07/22 06:03:50;;;;;;;8.67;7.87;;;19.80;37.30;;;;;;10451408;28;20225;-74
2021/07/22 06:08:54;;;;;;;8.27;7.57;;;20.00;36.50;;;;;;10455039;28;20225;-74
2021/07/22 06:13:58;;;;;;;9.47;8.60;;;20.20;36.70;;;;;;10448021;28;20231;-75
2021/07/22 06:19:02;;;;;;;9.27;8.37;;;20.40;37.30;;;;;;10448800;28;20221;-74
2021/07/22 06:24:05;;;;;;;8.93;8.13;;;20.50;36.90;;;;;;10452952;28;20232;-75
2021/07/22 06:29:12;;;;;;;8.80;7.93;;;20.80;37.20;;;;;;10439587;28;20220;-76
2021/07/22 06:34:16;;;;;;;10.33;8.60;;;20.90;37.30;;;;;;10439213;28;20217;-75
2021/07/22 06:39:19;;;;;;;9.00;8.20;;;21.10;37.50;;;;;;10431220;28;20303;-74
2021/07/22 06:44:23;;;;;;;8.43;7.73;;;21.20;37.40;;;;;;10436141;28;20307;-75
2021/07/22 06:49:27;;;;;;;10.23;8.50;;;21.40;37.70;;;;;;10442143;28;20308;-75
2021/07/22 06:54:30;;;;;;;9.00;8.20;;;21.50;37.10;;;;;;10449655;28;20249;-74
2021/07/22 06:59:35;;;;;;;9.00;8.10;;;21.60;37.10;;;;;;10446701;28;20229;-75
2021/07/22 07:04:38;;;;;;;10.07;8.03;;;21.80;37.30;;;;;;10443105;28;20229;-73
2021/07/22 07:09:42;;;;;;;9.37;8.47;;;22.00;36.90;;;;;;10444999;28;20229;-73
2021/07/22 07:14:46;;;;;;;8.50;7.70;;;22.10;36.60;;;;;;10446458;28;20233;-72
2021/07/22 07:19:50;;;;;;;8.80;8.00;;;22.30;36.80;;;;;;10438277;28;20263;-74
2021/07/22 07:24:54;;;;;;;8.80;7.90;;;22.50;36.80;;;;;;10444007;28;20241;-75
2021/07/22 07:29:58;;;;;;;8.23;7.60;;;22.70;36.60;;;;;;10438350;28;20320;-74
2021/07/22 07:35:02;;;;;;;8.73;7.90;;;22.90;36.90;;;;;;10437616;28;20707;-74
2021/07/22 07:40:06;;;;;;;8.40;7.77;;;23.10;36.50;;;;;;10464282;28;20609;-74
2021/07/22 07:45:11;;;;;;;8.87;7.97;;;23.30;36.30;;;;;;10452104;28;20596;-73
2021/07/22 07:50:19;;;;;;;8.30;7.50;;;23.50;36.10;;;;;;10452138;28;20286;-73
2021/07/22 07:55:22;;;;;;;8.63;7.83;;;23.70;35.80;;;;;;10452153;28;20233;-73
2021/07/22 08:00:26;;;;;;;7.83;6.90;;;23.90;36.00;;;;;;10450149;28;20229;-73
2021/07/22 08:05:30;;;;;;;7.50;6.80;;;24.10;35.90;;;;;;10446392;28;20626;-73
2021/07/22 08:10:33;;;;;;;8.53;7.70;;;24.30;35.40;;;;;;10449011;28;20221;-76
2021/07/22 08:15:38;;;;;;;9.07;8.17;;;24.50;35.30;;;;;;10435416;28;20239;-75
2021/07/22 08:20:41;;;;;;;8.70;7.90;;;24.70;35.00;;;;;;10446381;28;20241;-76
2021/07/22 08:25:46;;;;;;;7.97;7.23;;;25.00;35.90;;;;;;10437913;28;20225;-76
2021/07/22 08:30:51;;;;;;;9.13;8.23;;;25.20;34.90;;;;;;10445562;28;20732;-76
2021/07/22 08:35:54;;;;;;;12.10;7.37;;;25.40;34.10;;;;;;10460712;28;20240;-76
2021/07/22 08:40:58;;;;;;;8.77;7.97;;;25.70;34.30;;;;;;10465244;28;20227;-77
2021/07/22 08:46:05;;;;;;;8.37;7.57;;;25.90;34.00;;;;;;10450321;28;20225;-76
2021/07/22 08:51:08;;;;;;;8.30;7.43;;;26.00;33.70;;;;;;10456213;28;20247;-75
2021/07/22 08:56:12;;;;;;;8.27;7.57;;;26.20;33.30;;;;;;10464249;28;20229;-76
2021/07/22 09:01:19;;;;;;;8.37;7.53;;;26.40;33.10;;;;;;10451461;28;20225;-76
2021/07/22 09:06:22;;;;;;;8.57;7.67;;;26.60;32.50;;;;;;10452320;28;20235;-77
2021/07/22 09:11:26;;;;;;;8.87;8.07;;;26.80;33.00;;;;;;10451217;28;20241;-77
2021/07/22 09:16:50;;;;;;;9.97;8.10;;;27.00;32.30;;;;;;10436729;28;20228;-75
2021/07/22 09:21:53;;;;;;;8.60;7.80;;;27.20;31.70;;;;;;10436919;28;20240;-76
2021/07/22 09:26:57;;;;;;;8.03;7.27;;;27.40;31.50;;;;;;10436306;28;20236;-76
2021/07/22 09:32:06;;;;;;;8.90;8.00;;;27.60;30.70;;;;;;10444307;28;20225;-74
2021/07/22 09:37:10;;;;;;;8.90;7.47;;;27.80;29.70;;;;;;10443028;28;20213;-74
2021/07/22 09:42:13;;;;;;;8.60;7.80;;;27.90;30.50;;;;;;10441617;28;20227;-74
2021/07/22 09:47:27;;;;;;;8.80;7.97;;;28.10;30.30;;;;;;10442306;28;20239;-74
2021/07/22 09:52:30;;;;;;;10.33;8.07;;;28.30;29.10;;;;;;10429706;28;20598;-74
2021/07/22 09:57:33;;;;;;;8.43;7.63;;;28.40;29.40;;;;;;10435360;28;20228;-73
2021/07/22 10:02:40;;;;;;;8.03;7.33;;;28.60;29.30;;;;;;10434116;28;20879;-74
2021/07/22 10:07:46;;;;;;;8.50;7.77;;;28.70;28.50;;;;;;10435769;28;20229;-77
2021/07/22 10:12:55;;;;;;;8.97;7.57;;;28.80;27.70;;;;;;10432647;28;20237;-74
2021/07/22 10:18:01;;;;;;;8.10;7.40;;;29.00;27.70;;;;;;10437894;28;20228;-74
2021/07/22 10:23:05;;;;;;;8.90;8.00;;;29.20;27.00;;;;;;10436407;28;20228;-75
2021/07/22 10:28:09;;;;;;;8.80;7.93;;;29.20;27.80;;;;;;10442953;28;20244;-74
2021/07/22 10:33:19;;;;;;;8.23;7.53;;;29.30;27.40;;;;;;10455766;28;20225;-73
2021/07/22 10:38:23;;;;;;;8.60;7.83;;;29.50;26.60;;;;;;10455917;28;20260;-74
2021/07/22 10:43:41;;;;;;;8.60;7.90;;;29.70;27.30;;;;;;10455507;28;20251;-73
2021/07/22 10:48:46;;;;;;;8.73;7.97;;;29.80;25.90;;;;;;10431678;28;20666;-74
2021/07/22 10:53:51;;;;;;;9.17;8.37;;;29.90;26.70;;;;;;10455211;28;20235;-73
2021/07/22 10:58:56;;;;;;;8.83;8.13;;;29.90;26.10;;;;;;10455296;28;20229;-74
2021/07/22 11:04:01;;;;;;;7.90;7.20;;;30.00;26.50;;;;;;10453000;28;20264;-73
2021/07/22 11:09:08;;;;;;;8.20;7.50;;;30.10;26.00;;;;;;10454263;28;20221;-72
2021/07/22 11:14:31;;;;;;;9.10;8.20;;;30.20;25.50;;;;;;10453806;28;20625;-73
2021/07/22 11:19:35;;;;;;;8.83;8.03;;;30.30;25.80;;;;;;10453893;28;20259;-73
2021/07/22 11:24:39;;;;;;;9.23;8.43;;;30.30;25.50;;;;;;10452706;28;20249;-74
2021/07/22 11:29:42;;;;;;;8.73;8.03;;;30.40;25.80;;;;;;10446909;28;20233;-74
2021/07/22 11:34:46;;;;;;;9.57;8.70;;;30.50;25.60;;;;;;10445734;28;20231;-74
2021/07/22 11:39:49;;;;;;;9.37;8.57;;;30.60;25.20;;;;;;10441267;28;20240;-73
2021/07/22 11:45:03;;;;;;;8.93;8.13;;;30.70;25.20;;;;;;10451162;28;20235;-74
2021/07/22 11:50:08;;;;;;;8.87;8.17;;;30.70;24.10;;;;;;10451112;28;20275;-73
2021/07/22 11:55:13;;;;;;;9.30;8.50;;;30.80;24.10;;;;;;10450552;28;20217;-73
2021/07/22 12:00:17;;;;;;;10.10;9.20;;;30.80;24.60;;;;;;10458213;28;20229;-73
2021/07/22 12:05:25;;;;;;;9.47;8.67;;;30.80;24.40;;;;;;10427657;28;20235;-73
2021/07/22 12:10:30;;;;;;;9.20;8.40;;;30.80;23.70;;;;;;10450472;28;20225;-73
2021/07/22 12:15:34;;;;;;;9.73;8.93;;;30.80;23.90;;;;;;10456526;28;20221;-74
2021/07/22 12:20:38;;;;;;;9.87;8.87;;;30.80;23.90;;;;;;10445626;28;20643;-73
2021/07/22 12:25:55;;;;;;;8.57;7.87;;;30.80;24.10;;;;;;10439878;28;20221;-72
2021/07/22 12:31:15;;;;;;;8.80;8.00;;;30.90;23.80;;;;;;10449466;28;20231;-74
2021/07/22 12:36:23;;;;;;;8.97;8.17;;;30.90;23.80;;;;;;10449708;28;20223;-74
2021/07/22 12:41:27;;;;;;;9.37;8.53;;;31.00;23.30;;;;;;10443078;28;20319;-73
2021/07/22 12:46:32;;;;;;;9.13;8.30;;;31.00;23.60;;;;;;10432532;28;20229;-73
2021/07/22 12:51:36;;;;;;;9.13;8.40;;;31.00;23.40;;;;;;10445761;28;20235;-73
2021/07/22 12:56:44;;;;;;;9.50;8.70;;;31.00;23.10;;;;;;10441577;28;20224;-74
2021/07/22 13:01:56;;;;;;;9.63;8.80;;;31.00;22.50;;;;;;10456728;28;20584;-73
2021/07/22 13:07:01;;;;;;;9.17;8.27;;;31.00;22.70;;;;;;10448956;28;20221;-72
2021/07/22 13:12:05;;;;;;;9.50;8.70;;;31.10;23.20;;;;;;10447488;28;20227;-74
2021/07/22 13:17:08;;;;;;;10.10;9.10;;;31.10;23.10;;;;;;10448122;28;20320;-74
2021/07/22 13:22:16;;;;;;;9.63;8.83;;;31.20;23.10;;;;;;10428639;28;20227;-74
2021/07/22 13:27:21;;;;;;;9.73;8.90;;;31.20;21.80;;;;;;10425111;28;20225;-73
2021/07/22 13:32:24;;;;;;;10.10;9.20;;;31.20;22.60;;;;;;10442860;28;20224;-73
2021/07/22 13:37:28;;;;;;;9.70;8.80;;;31.20;22.60;;;;;;10448498;28;20236;-73
2021/07/22 13:42:32;;;;;;;10.47;9.60;;;31.20;22.40;;;;;;10448298;28;20224;-73
2021/07/22 13:47:35;;;;;;;10.27;9.40;;;31.20;22.60;;;;;;10444659;28;20229;-76
2021/07/22 13:52:40;;;;;;;9.87;8.93;;;31.20;22.40;;;;;;10446544;28;20607;-73
2021/07/22 13:57:43;;;;;;;10.53;9.63;;;31.20;21.80;;;;;;10435990;28;20739;-73
2021/07/22 14:02:46;;;;;;;9.97;9.07;;;31.20;21.70;;;;;;10454153;28;20229;-74
2021/07/22 14:07:51;;;;;;;10.57;9.53;;;31.20;21.70;;;;;;10440798;28;20320;-73
2021/07/22 14:12:55;;;;;;;10.87;9.90;;;31.10;21.70;;;;;;10446780;28;20233;-72
2021/07/22 14:17:58;;;;;;;9.93;9.03;;;31.20;21.70;;;;;;10448268;28;20626;-74
2021/07/22 14:23:03;;;;;;;10.37;9.47;;;31.20;21.70;;;;;;10441944;28;20224;-73
2021/07/22 14:28:06;;;;;;;10.47;9.53;;;31.20;21.80;;;;;;10461101;28;20232;-73
2021/07/22 14:33:10;;;;;;;10.30;9.33;;;31.20;21.80;;;;;;10452928;28;20706;-73
2021/07/22 14:38:14;;;;;;;9.70;8.90;;;31.20;21.70;;;;;;10446339;28;20221;-73
2021/07/22 14:43:17;;;;;;;9.90;8.90;;;31.20;21.30;;;;;;10452638;28;20232;-72
2021/07/22 14:48:21;;;;;;;9.43;8.63;;;31.20;21.40;;;;;;10453581;28;20236;-72
2021/07/22 14:53:36;;;;;;;10.10;9.20;;;31.10;21.50;;;;;;10451224;28;20233;-72
2021/07/22 14:58:39;;;;;;;9.93;9.10;;;31.10;21.20;;;;;;10450433;28;20770;-73
2021/07/22 15:03:42;;;;;;;9.73;8.97;;;31.10;21.70;;;;;;10429392;28;20225;-75
2021/07/22 15:08:47;;;;;;;10.77;9.77;;;31.20;21.70;;;;;;10439773;28;20244;-74
2021/07/22 15:13:50;;;;;;;9.87;8.97;;;31.20;21.20;;;;;;10442583;28;20285;-73
2021/07/22 15:18:53;;;;;;;9.83;8.97;;;31.10;21.10;;;;;;10453237;28;20233;-74
2021/07/22 15:23:58;;;;;;;9.67;8.87;;;31.10;21.20;;;;;;10448685;28;20228;-74
2021/07/22 15:29:01;;;;;;;9.73;8.93;;;31.00;20.90;;;;;;10443207;28;20731;-74
2021/07/22 15:34:04;;;;;;;9.93;9.03;;;31.10;20.90;;;;;;10451168;28;20221;-73
2021/07/22 15:39:21;;;;;;;10.30;9.30;;;31.10;20.90;;;;;;10466297;28;20260;-75
2021/07/22 15:44:24;;;;;;;9.37;8.57;;;31.10;20.40;;;;;;10450805;28;20229;-75
2021/07/22 15:49:28;;;;;;;10.67;9.80;;;31.20;20.80;;;;;;10447764;28;20231;-74
2021/07/22 15:54:41;;;;;;;9.87;8.97;;;31.20;20.60;;;;;;10455221;28;22132;-76
2021/07/22 15:59:49;;;;;;;9.90;9.00;;;31.20;20.10;;;;;;10453024;28;20229;-76
2021/07/22 16:05:04;;;;;;;10.57;9.57;;;31.30;20.00;;;;;;10439005;28;20219;-75
2021/07/22 16:10:10;;;;;;;9.63;8.73;;;31.30;20.30;;;;;;10459486;28;20235;-74
2021/07/22 16:15:13;;;;;;;11.37;9.30;;;31.30;20.10;;;;;;10450901;28;20227;-73
2021/07/22 16:20:16;;;;;;;10.90;9.20;;;31.30;20.20;;;;;;10450327;28;20232;-73
2021/07/22 16:25:21;;;;;;;9.47;8.67;;;31.30;20.60;;;;;;10443871;28;20229;-74
2021/07/22 16:30:25;;;;;;;9.17;8.37;;;31.20;20.00;;;;;;10446987;28;20233;-73
2021/07/22 16:35:29;;;;;;;10.97;9.17;;;31.20;20.20;;;;;;10449692;28;20243;-72
2021/07/22 16:40:34;;;;;;;9.77;8.87;;;31.00;20.90;;;;;;10450836;28;20239;-73
2021/07/22 16:45:38;;;;;;;10.20;9.20;;;31.00;20.70;;;;;;10450592;28;20233;-73
2021/07/22 16:50:42;;;;;;;9.80;8.90;;;30.90;20.70;;;;;;10450136;28;20779;-73
2021/07/22 16:55:46;;;;;;;9.83;9.03;;;30.90;20.50;;;;;;10450064;28;20231;-73
2021/07/22 17:00:50;;;;;;;9.33;8.53;;;30.90;21.00;;;;;;10449640;28;20233;-73
2021/07/22 17:05:54;;;;;;;9.93;9.03;;;30.90;21.10;;;;;;10449737;28;20320;-73
2021/07/22 17:10:59;;;;;;;9.53;8.70;;;31.00;21.10;;;;;;10449391;28;20750;-73
2021/07/22 17:16:02;;;;;;;10.40;9.50;;;31.10;20.70;;;;;;10449699;28;20245;-73
2021/07/22 17:21:07;;;;;;;9.70;8.90;;;31.10;21.40;;;;;;10419820;28;20245;-73
2021/07/22 17:26:12;;;;;;;9.93;9.03;;;31.10;21.70;;;;;;10407994;28;20238;-73
2021/07/22 17:31:16;;;;;;;9.53;8.73;;;31.10;21.70;;;;;;10423052;28;20233;-73
2021/07/22 17:36:19;;;;;;;9.90;9.10;;;31.10;21.70;;;;;;10412957;28;20246;-73
2021/07/22 17:41:24;;;;;;;10.43;9.53;;;31.10;21.70;;;;;;10415499;28;20221;-73
2021/07/22 17:46:27;;;;;;;10.13;9.13;;;31.00;21.60;;;;;;10416339;28;20233;-73
2021/07/22 17:51:30;;;;;;;9.93;9.03;;;31.00;21.70;;;;;;10415644;28;20229;-73
2021/07/22 17:56:40;;;;;;;9.70;8.90;;;30.90;21.60;;;;;;10416086;28;20785;-72
2021/07/22 18:01:43;;;;;;;9.47;8.67;;;30.80;21.50;;;;;;10416056;28;20852;-72
2021/07/22 18:06:46;;;;;;;11.17;9.23;;;30.70;21.50;;;;;;10415835;28;20226;-73
2021/07/22 18:11:53;;;;;;;9.97;9.03;;;30.70;21.70;;;;;;10415048;28;20234;-72
2021/07/22 18:16:56;;;;;;;10.17;9.30;;;30.60;21.80;;;;;;10417811;28;20232;-72
2021/07/22 18:22:05;;;;;;;10.23;9.33;;;30.40;22.00;;;;;;10417898;28;20244;-72
2021/07/22 18:27:09;;;;;;;10.10;9.20;;;30.30;22.10;;;;;;10421932;28;20593;-72
2021/07/22 18:32:40;;;;;;;8.93;8.23;;;30.20;22.10;;;;;;10456786;28;20282;-72
2021/07/22 18:37:44;;;;;;;9.67;8.70;;;30.00;22.50;;;;;;10455883;28;20224;-72
2021/07/22 18:42:48;;;;;;;9.77;8.97;;;29.90;22.50;;;;;;10452269;28;20720;-73
2021/07/22 18:47:52;;;;;;;10.47;9.47;;;29.70;23.00;;;;;;10446148;28;20239;-71
2021/07/22 18:52:55;;;;;;;9.73;8.93;;;29.60;23.50;;;;;;10444235;28;20237;-72
2021/07/22 18:57:59;;;;;;;9.73;8.93;;;29.50;23.70;;;;;;10440537;28;20228;-71
2021/07/22 19:03:03;;;;;;;10.10;9.20;;;29.40;24.10;;;;;;10435095;28;20221;-72
2021/07/22 19:08:06;;;;;;;9.27;8.47;;;29.20;24.10;;;;;;10433050;28;20220;-71
2021/07/22 19:13:11;;;;;;;10.07;9.07;;;29.00;24.10;;;;;;10440098;28;20237;-72
2021/07/22 19:18:15;;;;;;;10.23;9.23;;;28.90;24.60;;;;;;10443901;28;20769;-72
2021/07/22 19:23:19;;;;;;;9.30;8.50;;;28.70;24.40;;;;;;10444379;28;20233;-72
2021/07/22 19:28:24;;;;;;;10.17;9.27;;;28.60;24.80;;;;;;10444523;28;20748;-71
2021/07/22 19:33:29;;;;;;;10.23;9.23;;;28.50;25.10;;;;;;10442647;28;20232;-72
2021/07/22 19:38:32;;;;;;;9.00;8.20;;;28.40;24.70;;;;;;10440266;28;20228;-73
2021/07/22 19:43:39;;;;;;;9.77;8.93;;;28.20;24.70;;;;;;10436981;28;20779;-72
2021/07/22 19:48:46;;;;;;;9.37;8.43;;;28.00;25.80;;;;;;10432876;28;20239;-73
2021/07/22 19:53:53;;;;;;;9.40;8.60;;;27.80;25.30;;;;;;10439846;28;20233;-72
2021/07/22 19:58:58;;;;;;;9.43;8.63;;;27.60;25.40;;;;;;10440378;28;20225;-75
2021/07/22 20:04:02;;;;;;;9.17;8.37;;;27.40;25.90;;;;;;10435754;28;20229;-73
2021/07/22 20:09:05;;;;;;;9.47;8.57;;;27.40;25.90;;;;;;10437068;28;20237;-73
2021/07/22 20:14:10;;;;;;;9.70;8.90;;;27.20;26.00;;;;;;10437624;28;20329;-72
2021/07/22 20:19:13;;;;;;;9.87;8.87;;;27.00;26.60;;;;;;10451226;28;20642;-72
2021/07/22 20:24:16;;;;;;;10.10;9.20;;;26.80;26.20;;;;;;10451163;28;20233;-72
2021/07/22 20:29:21;;;;;;;9.07;8.27;;;26.60;26.40;;;;;;10450336;28;20303;-72
2021/07/22 20:34:27;;;;;;;9.00;8.17;;;26.40;27.10;;;;;;10447451;28;20241;-72
2021/07/22 20:39:30;;;;;;;9.40;8.60;;;26.20;27.50;;;;;;10443551;28;20232;-72
2021/07/22 20:44:35;;;;;;;9.60;8.70;;;26.10;27.10;;;;;;10442310;28;20323;-73
2021/07/22 20:49:38;;;;;;;8.77;8.00;;;26.00;27.60;;;;;;10442517;28;20233;-72
2021/07/22 20:54:41;;;;;;;9.63;8.70;;;25.90;27.20;;;;;;10444498;28;20233;-72
2021/07/22 20:59:46;;;;;;;10.03;9.23;;;25.80;27.50;;;;;;10446846;28;20622;-72
2021/07/22 21:04:49;;;;;;;9.70;8.80;;;25.70;27.90;;;;;;10450030;28;20316;-72
2021/07/22 21:09:52;;;;;;;9.73;8.93;;;25.60;27.60;;;;;;10450351;28;20233;-72
2021/07/22 21:14:56;;;;;;;9.77;7.90;;;25.40;27.80;;;;;;10449672;28;20235;-72
2021/07/22 21:20:00;;;;;;;10.13;9.13;;;25.30;28.80;;;;;;10450236;28;20747;-72
2021/07/22 21:25:03;;;;;;;11.77;9.60;;;25.20;28.50;;;;;;10449587;28;20235;-72
2021/07/22 21:30:10;;;;;;;11.23;10.20;;;25.10;28.70;;;;;;10449879;28;20311;-72
2021/07/22 21:35:13;;;;;;;9.57;8.77;;;24.90;29.10;;;;;;10449312;28;20232;-72
2021/07/22 21:40:17;;;;;;;10.90;9.83;;;24.80;28.60;;;;;;10449644;28;20231;-72
2021/07/22 21:45:22;;;;;;;9.90;9.00;;;24.60;28.90;;;;;;10449082;28;20235;-72
2021/07/22 21:50:25;;;;;;;10.37;9.43;;;24.60;29.50;;;;;;10449202;28;20711;-72
2021/07/22 21:55:28;;;;;;;10.80;9.80;;;24.50;29.20;;;;;;10449286;28;20231;-72
2021/07/22 22:00:33;;;;;;;10.97;9.97;;;24.50;29.40;;;;;;10449372;28;20263;-72
2021/07/22 22:05:36;;;;;;;10.63;9.53;;;24.50;29.80;;;;;;10448513;28;20275;-72
2021/07/22 22:10:41;;;;;;;10.40;9.37;;;24.30;29.40;;;;;;10448308;28;20316;-72
2021/07/22 22:15:46;;;;;;;10.73;9.63;;;24.30;30.20;;;;;;10448354;28;20221;-72
2021/07/22 22:20:49;;;;;;;9.17;8.37;;;24.20;30.10;;;;;;10448256;28;20343;-72
2021/07/22 22:25:53;;;;;;;9.90;9.00;;;24.10;29.90;;;;;;10450703;28;20235;-72
2021/07/22 22:30:57;;;;;;;9.93;8.90;;;24.10;30.00;;;;;;10446859;28;20240;-74
2021/07/22 22:36:01;;;;;;;10.87;9.80;;;24.00;30.40;;;;;;10436129;28;20575;-74
2021/07/22 22:41:04;;;;;;;10.60;9.60;;;24.00;30.00;;;;;;10434993;28;20232;-74
2021/07/22 22:46:08;;;;;;;9.40;8.50;;;24.00;30.20;;;;;;10434486;28;20217;-74
2021/07/22 22:51:12;;;;;;;10.77;8.90;;;23.90;30.60;;;;;;10432922;28;20764;-74
2021/07/22 22:56:15;;;;;;;11.73;10.53;;;23.80;30.40;;;;;;10427589;28;20224;-74
2021/07/22 23:01:20;;;;;;;11.43;10.33;;;23.60;30.70;;;;;;10428367;28;20631;-74
2021/07/22 23:06:23;;;;;;;11.17;10.07;;;23.40;31.30;;;;;;10429001;28;20711;-74
2021/07/22 23:11:27;;;;;;;10.77;9.80;;;23.10;31.00;;;;;;10431939;28;20633;-73
2021/07/22 23:16:31;;;;;;;10.03;9.10;;;22.90;31.50;;;;;;10432291;28;20217;-74
2021/07/22 23:21:36;;;;;;;9.20;8.37;;;22.80;32.20;;;;;;10430604;28;20253;-74
2021/07/22 23:26:39;;;;;;;10.70;9.60;;;22.80;31.80;;;;;;10428065;28;20229;-75
2021/07/22 23:31:44;;;;;;;10.40;9.47;;;22.80;32.00;;;;;;10429844;28;20240;-74
2021/07/22 23:36:47;;;;;;;10.90;9.60;;;22.90;33.00;;;;;;10425702;28;20226;-74
2021/07/22 23:41:50;;;;;;;8.17;7.47;;;22.90;32.20;;;;;;10426477;28;20234;-74
2021/07/22 23:46:55;;;;;;;10.17;9.27;;;22.90;32.10;;;;;;10424960;28;20256;-74
2021/07/22 23:51:58;;;;;;;10.43;9.43;;;22.90;32.80;;;;;;10421799;28;20235;-74
2021/07/22 23:57:01;;;;;;;9.63;8.73;;;23.00;32.50;;;;;;10428541;28;20228;-74
